createdAt,value
2023-01-13T00:00:38.667Z,0.40
2023-01-13T00:03:08.745Z,0.40
2023-01-13T00:05:38.188Z,0.30
2023-01-13T00:08:09.455Z,0.47
2023-01-13T00:10:38.106Z,0.43
2023-01-13T00:13:07.457Z,0.43
2023-01-13T00:15:36.466Z,0.50
2023-01-13T00:18:05.412Z,0.50
2023-01-13T00:20:35.365Z,0.32
2023-01-13T00:23:04.697Z,0.47
2023-01-13T00:25:33.323Z,0.40
2023-01-13T00:28:02.060Z,0.40
2023-01-13T00:30:30.514Z,0.40
2023-01-13T00:32:58.947Z,0.40
2023-01-13T00:35:27.657Z,0.40
2023-01-13T00:37:57.685Z,0.20
2023-01-13T00:40:27.059Z,0.30
2023-01-13T00:43:13.567Z,0.50
2023-01-13T00:45:42.041Z,0.40
2023-01-13T00:48:10.465Z,0.30
2023-01-13T00:50:39.141Z,0.40
2023-01-13T00:53:09.077Z,0.38
2023-01-13T00:55:37.737Z,0.40
2023-01-13T00:58:06.116Z,0.40
2023-01-13T01:00:35.002Z,0.38
2023-01-13T01:03:03.511Z,0.30
2023-01-13T01:05:31.973Z,0.32
2023-01-13T01:08:00.491Z,0.60
2023-01-13T01:10:30.644Z,0.40
2023-01-13T01:12:59.023Z,0.32
2023-01-13T01:15:27.808Z,0.45
2023-01-13T01:17:56.811Z,0.40
2023-01-13T01:20:25.382Z,0.40
2023-01-13T01:22:53.886Z,0.50
2023-01-13T01:25:22.346Z,0.60
2023-01-13T01:27:52.299Z,0.40
2023-01-13T01:30:21.057Z,0.40
2023-01-13T01:32:49.445Z,0.40
2023-01-13T01:35:18.067Z,0.50
2023-01-13T01:37:46.709Z,0.50
2023-01-13T01:40:15.356Z,0.40
2023-01-13T01:43:01.535Z,0.52
2023-01-13T01:45:32.703Z,0.65
2023-01-13T01:48:02.587Z,0.65
2023-01-13T01:50:31.571Z,0.60
2023-01-13T01:53:04.294Z,0.85
2023-01-13T01:55:35.255Z,0.77
2023-01-13T01:58:06.997Z,1.33
2023-01-13T02:00:37.269Z,0.88
2023-01-13T02:03:07.017Z,0.95
2023-01-13T02:05:35.849Z,1.05
2023-01-13T02:08:08.559Z,1.42
2023-01-13T02:10:38.516Z,0.77
2023-01-13T02:13:08.612Z,0.90
2023-01-13T02:15:45.418Z,1.15
2023-01-13T02:18:33.334Z,1.20
2023-01-13T02:21:16.284Z,0.80
2023-01-13T02:24:34.543Z,0.90
2023-01-13T02:27:27.640Z,1.08
2023-01-13T02:30:23.131Z,0.80
2023-01-13T02:33:02.071Z,1.17
2023-01-13T02:35:37.332Z,1.10
2023-01-13T02:38:06.301Z,1.17
2023-01-13T02:40:38.145Z,1.30
2023-01-13T02:43:27.420Z,1.65
2023-01-13T02:45:59.280Z,1.27
2023-01-13T02:48:30.491Z,1.00
2023-01-13T02:51:02.845Z,0.90
2023-01-13T02:53:35.986Z,0.80
2023-01-13T02:56:05.285Z,1.55
2023-01-13T02:58:35.732Z,1.80
2023-01-13T03:01:05.669Z,0.85
2023-01-13T03:03:34.122Z,1.05
2023-01-13T03:06:09.678Z,1.20
2023-01-13T03:08:43.531Z,1.00
2023-01-13T03:11:13.493Z,0.77
2023-01-13T03:14:01.871Z,1.33
2023-01-13T03:16:36.744Z,1.17
2023-01-13T03:19:15.964Z,0.75
2023-01-13T03:21:51.866Z,0.95
2023-01-13T03:24:23.914Z,1.15
2023-01-13T03:26:55.616Z,0.65
2023-01-13T03:29:27.840Z,1.38
2023-01-13T03:32:01.095Z,0.93
2023-01-13T03:34:32.690Z,0.88
2023-01-13T03:37:05.477Z,0.85
2023-01-13T03:39:36.285Z,0.73
2023-01-13T03:42:09.600Z,0.80
2023-01-13T03:44:42.342Z,1.13
2023-01-13T03:47:18.160Z,1.15
2023-01-13T03:49:53.749Z,1.10
2023-01-13T03:52:25.175Z,1.15
2023-01-13T03:54:58.134Z,1.20
2023-01-13T03:57:30.621Z,2.05
2023-01-13T04:00:01.003Z,0.98
2023-01-13T04:02:41.259Z,1.13
2023-01-13T04:05:10.541Z,0.95
2023-01-13T04:07:47.515Z,1.30
2023-01-13T04:10:20.325Z,0.82
2023-01-13T04:13:04.552Z,1.30
2023-01-13T04:15:36.369Z,0.95
2023-01-13T04:18:13.540Z,1.17
2023-01-13T04:20:42.816Z,1.63
2023-01-13T04:23:11.109Z,1.88
2023-01-13T04:25:40.123Z,1.33
2023-01-13T04:28:08.391Z,1.38
2023-01-13T04:30:37.221Z,1.33
2023-01-13T04:33:05.978Z,2.10
2023-01-13T04:35:36.087Z,1.90
2023-01-13T04:38:08.289Z,1.45
2023-01-13T04:40:36.491Z,2.37
2023-01-13T04:43:05.534Z,2.20
2023-01-13T04:45:33.968Z,2.25
2023-01-13T04:48:02.218Z,2.75
2023-01-13T04:50:30.415Z,1.60
2023-01-13T04:53:01.234Z,2.08
2023-01-13T04:55:29.744Z,3.95
2023-01-13T04:58:03.503Z,1.95
2023-01-13T05:00:32.112Z,2.65
2023-01-13T05:03:00.615Z,2.38
2023-01-13T05:05:29.495Z,2.78
2023-01-13T05:07:59.318Z,2.33
2023-01-13T05:10:28.336Z,2.63
2023-01-13T05:13:14.083Z,2.95
2023-01-13T05:16:00.695Z,2.72
2023-01-13T05:18:30.536Z,2.67
2023-01-13T05:20:58.956Z,2.58
2023-01-13T05:23:55.540Z,3.58
2023-01-13T05:26:24.591Z,2.17
2023-01-13T05:28:52.827Z,2.40
2023-01-13T05:31:21.083Z,3.17
2023-01-13T05:33:49.656Z,3.00
2023-01-13T05:36:18.512Z,1.95
2023-01-13T05:38:48.092Z,2.50
2023-01-13T05:41:33.623Z,2.33
2023-01-13T05:44:01.937Z,2.92
2023-01-13T05:46:30.469Z,2.78
2023-01-13T05:48:59.923Z,2.97
2023-01-13T05:51:28.105Z,2.88
2023-01-13T05:53:59.334Z,3.30
2023-01-13T05:56:27.603Z,2.78
2023-01-13T05:58:55.821Z,3.45
2023-01-13T06:01:24.128Z,3.55
2023-01-13T06:03:52.678Z,3.42
2023-01-13T06:06:20.914Z,2.60
2023-01-13T06:08:49.199Z,2.75
2023-01-13T06:11:19.270Z,2.58
2023-01-13T06:13:48.022Z,3.08
2023-01-13T06:16:16.271Z,2.30
2023-01-13T06:18:44.554Z,4.32
2023-01-13T06:21:12.778Z,3.38
2023-01-13T06:23:41.021Z,3.15
2023-01-13T06:26:13.318Z,2.88
2023-01-13T06:28:43.079Z,3.08
2023-01-13T06:31:11.949Z,2.55
2023-01-13T06:33:42.382Z,2.75
2023-01-13T06:36:13.929Z,2.53
2023-01-13T06:38:45.076Z,3.28
2023-01-13T06:41:13.304Z,3.03
2023-01-13T06:43:42.114Z,2.60
2023-01-13T06:46:10.596Z,3.75
2023-01-13T06:48:38.980Z,3.10
2023-01-13T06:51:07.462Z,2.72
2023-01-13T06:53:35.711Z,3.00
2023-01-13T06:56:03.999Z,3.22
2023-01-13T06:58:32.255Z,2.40
2023-01-13T07:01:03.198Z,2.53
2023-01-13T07:03:31.559Z,3.20
2023-01-13T07:06:00.516Z,3.38
2023-01-13T07:08:28.828Z,2.63
2023-01-13T07:10:57.444Z,2.75
2023-01-13T07:13:42.933Z,2.80
2023-01-13T07:16:13.164Z,2.83
2023-01-13T07:18:41.518Z,3.40
2023-01-13T07:21:12.097Z,2.92
2023-01-13T07:23:41.416Z,2.50
2023-01-13T07:26:10.936Z,2.92
2023-01-13T07:28:39.927Z,3.45
2023-01-13T07:31:15.214Z,2.78
2023-01-13T07:33:43.501Z,2.55
2023-01-13T07:36:12.144Z,3.80
2023-01-13T07:38:40.825Z,3.55
2023-01-13T07:41:23.021Z,2.47
2023-01-13T07:43:51.544Z,2.95
2023-01-13T07:46:21.252Z,2.40
2023-01-13T07:48:50.121Z,2.83
2023-01-13T07:51:18.899Z,2.00
2023-01-13T07:53:47.171Z,1.92
2023-01-13T07:56:15.427Z,2.28
2023-01-13T07:58:44.964Z,2.42
2023-01-13T08:01:14.639Z,2.47
2023-01-13T08:03:44.704Z,2.78
2023-01-13T08:06:13.395Z,2.90
2023-01-13T08:08:41.591Z,2.95
2023-01-13T08:11:10.288Z,2.60
2023-01-13T08:13:38.812Z,3.42
2023-01-13T08:16:09.509Z,2.00
2023-01-13T08:18:38.606Z,2.40
2023-01-13T08:21:10.415Z,2.00
2023-01-13T08:23:38.933Z,3.50
2023-01-13T08:26:08.580Z,2.85
2023-01-13T08:28:37.009Z,2.05
2023-01-13T08:31:07.456Z,2.67
2023-01-13T08:33:36.246Z,3.42
2023-01-13T08:36:05.853Z,2.65
2023-01-13T08:38:36.145Z,3.03
2023-01-13T08:41:10.186Z,2.70
2023-01-13T08:43:38.439Z,2.50
2023-01-13T08:46:07.041Z,3.15
2023-01-13T08:48:35.334Z,2.22
2023-01-13T08:51:04.761Z,2.08
2023-01-13T08:53:33.238Z,2.63
2023-01-13T08:56:02.895Z,2.92
2023-01-13T08:58:31.403Z,2.30
2023-01-13T09:01:06.265Z,2.42
2023-01-13T09:03:34.661Z,2.20
2023-01-13T09:06:02.982Z,3.33
2023-01-13T09:08:31.238Z,3.35
2023-01-13T09:10:59.594Z,3.10
2023-01-13T09:13:28.331Z,3.10
2023-01-13T09:15:57.056Z,2.17
2023-01-13T09:18:25.418Z,2.03
2023-01-13T09:20:53.734Z,3.40
2023-01-13T09:23:21.903Z,2.58
2023-01-13T09:25:50.469Z,2.55
2023-01-13T09:28:18.752Z,3.47
2023-01-13T09:30:48.385Z,2.53
2023-01-13T09:33:34.104Z,2.95
2023-01-13T09:36:02.305Z,2.67
2023-01-13T09:38:31.841Z,2.42
2023-01-13T09:41:00.127Z,2.30
2023-01-13T09:43:51.481Z,3.17
2023-01-13T09:46:42.910Z,2.28
2023-01-13T09:49:16.800Z,2.25
2023-01-13T09:51:49.037Z,3.15
2023-01-13T09:54:20.307Z,2.67
2023-01-13T09:56:48.636Z,2.60
2023-01-13T09:59:17.288Z,1.70
2023-01-13T10:01:52.797Z,3.15
2023-01-13T10:04:21.390Z,2.80
2023-01-13T10:06:53.216Z,2.60
2023-01-13T10:09:24.482Z,2.50
2023-01-13T10:12:11.627Z,2.30
2023-01-13T10:14:43.802Z,2.58
2023-01-13T10:17:22.623Z,3.10
2023-01-13T10:19:54.306Z,3.15
2023-01-13T10:22:34.975Z,3.55
2023-01-13T10:25:18.355Z,3.22
2023-01-13T10:27:50.061Z,2.88
2023-01-13T10:30:23.880Z,2.83
2023-01-13T10:32:56.337Z,3.95
2023-01-13T10:36:03.408Z,3.13
2023-01-13T10:38:37.791Z,3.03
2023-01-13T10:41:07.716Z,2.90
2023-01-13T10:43:35.916Z,3.43
2023-01-13T10:46:06.882Z,3.63
2023-01-13T10:48:41.950Z,3.55
2023-01-13T10:51:21.725Z,3.33
2023-01-13T10:53:58.762Z,2.78
2023-01-13T10:56:29.395Z,3.58
2023-01-13T10:59:18.615Z,2.67
2023-01-13T11:02:03.968Z,3.95
2023-01-13T11:04:39.738Z,3.22
2023-01-13T11:07:22.085Z,3.28
2023-01-13T11:09:50.594Z,3.50
2023-01-13T11:12:32.862Z,2.53
2023-01-13T11:15:02.549Z,3.75
2023-01-13T11:17:36.035Z,2.83
2023-01-13T11:20:15.002Z,2.90
2023-01-13T11:22:47.609Z,3.70
2023-01-13T11:25:19.551Z,4.40
2023-01-13T11:27:52.508Z,2.40
2023-01-13T11:30:27.616Z,2.97
2023-01-13T11:33:09.418Z,3.45
2023-01-13T11:35:43.693Z,3.65
2023-01-13T11:38:15.945Z,3.97
2023-01-13T11:40:47.565Z,4.63
2023-01-13T11:43:21.611Z,3.40
2023-01-13T11:45:53.574Z,4.38
2023-01-13T11:48:27.022Z,3.50
2023-01-13T11:51:01.796Z,4.47
2023-01-13T11:53:41.461Z,3.50
2023-01-13T11:56:32.603Z,3.10
2023-01-13T11:59:24.491Z,3.63
2023-01-13T12:02:05.681Z,3.47
2023-01-13T12:04:42.545Z,4.72
2023-01-13T12:07:18.448Z,3.55
2023-01-13T12:10:00.621Z,3.30
2023-01-13T12:12:38.020Z,3.55
2023-01-13T12:15:39.651Z,3.40
2023-01-13T12:18:30.147Z,3.53
2023-01-13T12:21:10.147Z,4.35
2023-01-13T12:23:43.305Z,4.18
2023-01-13T12:26:13.845Z,3.97
2023-01-13T12:28:47.478Z,3.70
2023-01-13T12:31:17.017Z,3.70
2023-01-13T12:33:52.770Z,3.08
2023-01-13T12:36:26.433Z,3.83
2023-01-13T12:38:59.195Z,3.55
2023-01-13T12:41:36.978Z,3.58
2023-01-13T12:44:17.326Z,3.72
2023-01-13T12:46:57.132Z,4.47
2023-01-13T12:49:30.897Z,5.43
2023-01-13T12:52:18.477Z,2.75
2023-01-13T12:55:10.540Z,3.22
2023-01-13T12:57:40.379Z,3.97
2023-01-13T13:00:19.385Z,3.20
2023-01-13T13:03:26.038Z,4.20
2023-01-13T13:05:59.716Z,3.20
2023-01-13T13:08:52.735Z,2.97
2023-01-13T13:11:58.805Z,3.30
2023-01-13T13:15:06.177Z,4.18
2023-01-13T13:18:01.407Z,3.65
2023-01-13T13:20:58.585Z,3.33
2023-01-13T13:23:44.137Z,3.55
2023-01-13T13:26:20.175Z,3.65
2023-01-13T13:29:10.987Z,3.85
2023-01-13T13:32:09.557Z,3.60
2023-01-13T13:34:44.523Z,3.70
2023-01-13T13:37:26.454Z,3.78
2023-01-13T13:40:12.702Z,3.90
2023-01-13T13:43:02.418Z,2.95
2023-01-13T13:45:58.938Z,2.55
2023-01-13T13:48:29.215Z,2.92
2023-01-13T13:51:02.243Z,1.83
2023-01-13T13:56:02.027Z,1.25
2023-01-13T13:58:33.686Z,1.73
2023-01-13T14:01:05.495Z,1.95
2023-01-13T14:03:40.021Z,1.05
2023-01-13T14:06:17.755Z,0.90
2023-01-13T14:08:51.360Z,1.10
2023-01-13T14:11:27.487Z,1.63
2023-01-13T14:14:06.478Z,1.75
2023-01-13T14:16:41.772Z,1.63
2023-01-13T14:19:27.579Z,1.58
2023-01-13T14:21:55.869Z,1.67
2023-01-13T14:24:25.188Z,2.15
2023-01-13T14:26:53.581Z,3.05
2023-01-13T14:33:04.483Z,1.98
2023-01-13T14:35:32.763Z,3.22
2023-01-13T14:38:04.469Z,3.80
2023-01-13T14:40:45.761Z,2.40
2023-01-13T14:43:17.106Z,3.50
2023-01-13T14:45:56.847Z,3.25
2023-01-13T14:48:35.511Z,2.85
2023-01-13T14:51:05.887Z,2.97
2023-01-13T14:53:39.656Z,3.50
2023-01-13T14:56:42.232Z,2.65
2023-01-13T14:59:35.681Z,3.90
2023-01-13T15:02:20.042Z,3.38
2023-01-13T15:04:53.901Z,4.60
2023-01-13T15:07:26.833Z,3.33
2023-01-13T15:09:56.618Z,3.75
2023-01-13T15:12:29.334Z,4.68
2023-01-13T15:14:58.671Z,2.70
2023-01-13T15:17:26.847Z,4.55
2023-01-13T15:19:56.489Z,2.65
2023-01-13T15:22:24.934Z,3.50
2023-01-13T15:24:53.080Z,3.97
2023-01-13T15:27:25.898Z,3.33
2023-01-13T15:29:54.165Z,4.18
2023-01-13T15:32:23.192Z,2.65
2023-01-13T15:34:53.093Z,2.90
2023-01-13T15:37:24.535Z,2.90
2023-01-13T15:39:52.799Z,3.70
2023-01-13T15:42:38.778Z,2.78
2023-01-13T15:45:25.350Z,2.33
2023-01-13T15:47:53.593Z,2.15
2023-01-13T15:50:23.033Z,2.45
2023-01-13T15:52:52.719Z,2.83
2023-01-13T15:55:21.018Z,2.22
2023-01-13T15:57:51.301Z,2.33
2023-01-13T16:00:21.995Z,3.05
2023-01-13T16:02:50.492Z,3.25
2023-01-13T16:05:18.866Z,2.40
2023-01-13T16:07:47.107Z,2.35
2023-01-13T16:10:19.620Z,2.92
2023-01-13T16:12:48.425Z,2.63
2023-01-13T16:15:18.389Z,3.35
2023-01-13T16:17:47.376Z,2.95
2023-01-13T16:20:17.709Z,2.92
2023-01-13T16:22:46.617Z,3.63
2023-01-13T16:25:18.871Z,2.80
2023-01-13T16:27:47.163Z,4.00
2023-01-13T16:30:23.998Z,2.92
2023-01-13T16:32:52.652Z,2.72
2023-01-13T16:35:21.582Z,3.63
2023-01-13T16:37:50.649Z,3.25
2023-01-13T16:40:24.128Z,2.20
2023-01-13T16:42:52.853Z,3.63
2023-01-13T16:45:21.209Z,3.55
2023-01-13T16:47:49.458Z,3.13
2023-01-13T16:50:33.188Z,2.90
2023-01-13T16:53:01.704Z,3.38
2023-01-13T16:55:31.462Z,3.60
2023-01-13T16:57:59.797Z,3.83
2023-01-13T17:00:28.376Z,3.33
2023-01-13T17:02:58.884Z,5.60
2023-01-13T17:05:27.092Z,3.10
2023-01-13T17:07:57.151Z,3.65
2023-01-13T17:10:26.180Z,3.17
2023-01-13T17:12:57.058Z,3.30
2023-01-13T17:15:25.326Z,3.88
2023-01-13T17:17:55.380Z,3.45
2023-01-13T17:20:23.585Z,3.97
2023-01-13T17:22:58.009Z,3.15
2023-01-13T17:25:26.674Z,2.53
2023-01-13T17:27:56.406Z,2.55
2023-01-13T17:30:24.822Z,2.33
2023-01-13T17:32:53.040Z,2.40
2023-01-13T17:35:25.413Z,3.30
2023-01-13T17:37:53.754Z,3.40
2023-01-13T17:40:22.021Z,3.30
2023-01-13T17:42:50.275Z,5.05
2023-01-13T17:45:19.884Z,3.65
2023-01-13T17:47:48.068Z,3.67
2023-01-13T17:50:17.367Z,2.58
2023-01-13T17:52:45.539Z,3.55
2023-01-13T17:55:14.194Z,3.15
2023-01-13T17:57:42.390Z,2.97
2023-01-13T18:00:12.696Z,3.15
2023-01-13T18:02:42.355Z,3.53
2023-01-13T18:05:12.969Z,3.20
2023-01-13T18:07:41.287Z,3.42
2023-01-13T18:10:10.969Z,3.83
2023-01-13T18:12:39.206Z,4.10
2023-01-13T18:15:09.158Z,2.65
2023-01-13T18:17:37.963Z,3.90
2023-01-13T18:20:25.835Z,3.67
2023-01-13T18:23:11.184Z,3.20
2023-01-13T18:26:03.885Z,2.58
2023-01-13T18:28:32.251Z,3.60
2023-01-13T18:31:00.518Z,3.65
2023-01-13T18:33:28.776Z,3.05
2023-01-13T18:35:58.346Z,3.30
2023-01-13T18:38:28.691Z,3.58
2023-01-13T18:40:56.999Z,3.10
2023-01-13T18:43:24.192Z,3.03
2023-01-13T18:45:52.532Z,2.92
2023-01-13T18:48:20.724Z,5.03
2023-01-13T18:50:49.025Z,3.67
2023-01-13T18:53:18.633Z,3.22
2023-01-13T18:55:46.832Z,2.95
2023-01-13T18:58:15.690Z,4.97
2023-01-13T19:00:44.003Z,2.90
2023-01-13T19:03:13.050Z,3.10
2023-01-13T19:05:41.407Z,3.85
2023-01-13T19:08:09.995Z,3.90
2023-01-13T19:10:40.799Z,3.47
2023-01-13T19:13:08.973Z,3.10
2023-01-13T19:15:38.373Z,2.85
2023-01-13T19:18:06.937Z,3.85
2023-01-13T19:20:35.227Z,4.22
2023-01-13T19:23:03.444Z,4.45
2023-01-13T19:25:31.733Z,4.32
2023-01-13T19:28:01.550Z,3.70
2023-01-13T19:30:30.144Z,3.08
2023-01-13T19:32:58.422Z,4.57
2023-01-13T19:35:26.842Z,4.80
2023-01-13T19:37:56.182Z,3.40
2023-01-13T19:40:24.615Z,4.47
2023-01-13T19:43:10.090Z,4.25
2023-01-13T19:45:40.108Z,4.50
2023-01-13T19:48:08.612Z,5.00
2023-01-13T19:50:38.581Z,5.32
2023-01-13T19:53:06.923Z,5.05
2023-01-13T19:55:35.446Z,4.93
2023-01-13T19:58:04.099Z,4.03
2023-01-13T20:00:32.446Z,5.30
2023-01-13T20:03:04.447Z,3.33
2023-01-13T20:05:32.819Z,4.40
2023-01-13T20:08:01.031Z,4.57
2023-01-13T20:10:31.285Z,3.67
2023-01-13T20:12:59.542Z,3.80
2023-01-13T20:15:27.859Z,4.05
2023-01-13T20:17:57.991Z,3.70
2023-01-13T20:20:28.025Z,3.67
2023-01-13T20:22:58.162Z,3.40
2023-01-13T20:25:28.593Z,3.97
2023-01-13T20:27:58.482Z,3.85
2023-01-13T20:30:26.823Z,4.57
2023-01-13T20:32:54.992Z,3.97
2023-01-13T20:35:24.399Z,4.72
2023-01-13T20:37:53.994Z,3.58
2023-01-13T20:40:25.064Z,3.60
2023-01-13T20:42:52.721Z,5.05
2023-01-13T20:45:21.672Z,4.45
2023-01-13T20:47:50.176Z,3.40
2023-01-13T20:50:19.055Z,4.82
2023-01-13T20:52:48.493Z,5.18
2023-01-13T20:55:18.504Z,4.13
2023-01-13T20:57:48.874Z,4.70
2023-01-13T21:00:18.155Z,4.18
2023-01-13T21:02:46.378Z,4.60
2023-01-13T21:05:14.782Z,3.67
2023-01-13T21:07:43.052Z,4.80
2023-01-13T21:10:12.814Z,3.58
2023-01-13T21:13:00.180Z,3.65
2023-01-13T21:15:28.447Z,3.88
2023-01-13T21:18:13.875Z,4.00
2023-01-13T21:20:42.328Z,5.43
2023-01-13T21:23:11.779Z,4.70
2023-01-13T21:25:40.514Z,3.67
2023-01-13T21:28:11.845Z,4.97
2023-01-13T21:30:40.758Z,4.82
2023-01-13T21:33:09.384Z,4.10
2023-01-13T21:35:40.182Z,3.63
2023-01-13T21:38:08.588Z,3.45
2023-01-13T21:40:36.837Z,4.65
2023-01-13T21:43:22.564Z,4.85
2023-01-13T21:46:09.950Z,3.28
2023-01-13T21:48:38.224Z,4.32
2023-01-13T21:51:06.927Z,3.55
2023-01-13T21:53:35.178Z,4.10
2023-01-13T21:56:04.370Z,4.38
2023-01-13T21:58:32.608Z,3.40
2023-01-13T22:01:04.442Z,4.57
2023-01-13T22:03:55.080Z,3.63
2023-01-13T22:06:23.376Z,3.38
2023-01-13T22:08:51.665Z,3.92
2023-01-13T22:11:19.827Z,3.72
2023-01-13T22:14:05.753Z,4.57
2023-01-13T22:16:37.695Z,3.10
2023-01-13T22:19:06.542Z,3.58
2023-01-13T22:21:35.303Z,4.78
2023-01-13T22:24:04.178Z,3.83
2023-01-13T22:26:32.470Z,3.83
2023-01-13T22:29:02.245Z,4.55
2023-01-13T22:31:31.689Z,5.30
2023-01-13T22:34:01.721Z,3.70
2023-01-13T22:36:29.987Z,3.33
2023-01-13T22:39:00.627Z,3.90
2023-01-13T22:41:29.013Z,5.00
2023-01-13T22:43:57.376Z,6.05
2023-01-13T22:46:25.625Z,4.90
2023-01-13T22:48:56.047Z,4.28
2023-01-13T22:51:26.732Z,4.75
2023-01-13T22:53:55.772Z,5.38
2023-01-13T22:56:25.610Z,4.95
2023-01-13T22:59:05.279Z,4.15
2023-01-13T23:01:35.244Z,5.25
2023-01-13T23:04:04.085Z,4.38
2023-01-13T23:06:35.216Z,4.53
2023-01-13T23:09:03.506Z,5.03
2023-01-13T23:11:32.231Z,3.92
2023-01-13T23:14:02.221Z,4.15
2023-01-13T23:16:34.489Z,5.28
2023-01-13T23:19:03.439Z,5.38
2023-01-13T23:21:36.182Z,5.18
2023-01-13T23:24:05.865Z,4.28
2023-01-13T23:26:35.324Z,5.00
2023-01-13T23:29:19.764Z,4.82
2023-01-13T23:31:48.523Z,5.70
2023-01-13T23:34:16.836Z,5.10
2023-01-13T23:36:46.506Z,5.20
2023-01-13T23:39:14.687Z,4.75
2023-01-13T23:41:45.957Z,4.93
2023-01-13T23:44:14.181Z,5.22
2023-01-13T23:46:42.544Z,6.10
2023-01-13T23:49:11.160Z,5.05
2023-01-13T23:51:39.636Z,6.22
2023-01-13T23:54:09.417Z,5.53
2023-01-13T23:56:46.746Z,6.25
2023-01-13T23:59:14.977Z,4.95
